sensor_id;sensor_type;location;lat;lon;timestamp;pressure;altitude;pressure_sealevel;temperature
42197;BMP280;27866;48.146;17.098;2023-01-30T00:00:44;100275.47;;;1.20
42197;BMP280;27866;48.146;17.098;2023-01-30T00:04:56;100279.03;;;1.13
42197;BMP280;27866;48.146;17.098;2023-01-30T00:09:13;100262.91;;;1.13
42197;BMP280;27866;48.146;17.098;2023-01-30T00:13:27;100262.78;;;1.17
42197;BMP280;27866;48.146;17.098;2023-01-30T00:17:38;100254.22;;;1.19
42197;BMP280;27866;48.146;17.098;2023-01-30T00:21:49;100247.25;;;1.26
42197;BMP280;27866;48.146;17.098;2023-01-30T00:26:01;100248.03;;;1.29
42197;BMP280;27866;48.146;17.098;2023-01-30T00:30:13;100230.00;;;1.35
42197;BMP280;27866;48.146;17.098;2023-01-30T00:34:24;100220.59;;;1.37
42197;BMP280;27866;48.146;17.098;2023-01-30T00:38:36;100219.66;;;1.41
42197;BMP280;27866;48.146;17.098;2023-01-30T00:42:48;100218.81;;;1.42
42197;BMP280;27866;48.146;17.098;2023-01-30T00:47:19;100214.66;;;1.38
42197;BMP280;27866;48.146;17.098;2023-01-30T00:51:31;100216.41;;;1.36
42197;BMP280;27866;48.146;17.098;2023-01-30T00:55:42;100206.31;;;1.31
42197;BMP280;27866;48.146;17.098;2023-01-30T00:59:54;100200.41;;;1.30
42197;BMP280;27866;48.146;17.098;2023-01-30T01:04:07;100194.69;;;1.20
42197;BMP280;27866;48.146;17.098;2023-01-30T01:08:20;100192.50;;;1.06
42197;BMP280;27866;48.146;17.098;2023-01-30T01:12:32;100187.69;;;0.96
42197;BMP280;27866;48.146;17.098;2023-01-30T01:16:44;100186.22;;;0.86
42197;BMP280;27866;48.146;17.098;2023-01-30T01:20:55;100183.22;;;0.71
42197;BMP280;27866;48.146;17.098;2023-01-30T01:25:08;100174.09;;;0.61
42197;BMP280;27866;48.146;17.098;2023-01-30T01:29:20;100164.19;;;0.50
42197;BMP280;27866;48.146;17.098;2023-01-30T01:33:31;100156.72;;;0.43
42197;BMP280;27866;48.146;17.098;2023-01-30T01:37:42;100150.03;;;0.39
42197;BMP280;27866;48.146;17.098;2023-01-30T01:41:54;100158.56;;;0.38
42197;BMP280;27866;48.146;17.098;2023-01-30T01:46:21;100144.97;;;0.37
42197;BMP280;27866;48.146;17.098;2023-01-30T01:51:05;100147.53;;;0.37
42197;BMP280;27866;48.146;17.098;2023-01-30T01:55:20;100139.75;;;0.42
42197;BMP280;27866;48.146;17.098;2023-01-30T01:59:44;100140.56;;;0.45
42197;BMP280;27866;48.146;17.098;2023-01-30T02:04:03;100136.25;;;0.47
42197;BMP280;27866;48.146;17.098;2023-01-30T02:08:39;100137.97;;;0.46
42197;BMP280;27866;48.146;17.098;2023-01-30T02:12:51;100131.19;;;0.45
42197;BMP280;27866;48.146;17.098;2023-01-30T02:17:02;100120.19;;;0.45
42197;BMP280;27866;48.146;17.098;2023-01-30T02:35:20;100084.56;;;0.42
42197;BMP280;27866;48.146;17.098;2023-01-30T02:44:14;100082.03;;;0.42
42197;BMP280;27866;48.146;17.098;2023-01-30T02:48:44;100075.22;;;0.43
42197;BMP280;27866;48.146;17.098;2023-01-30T02:52:57;100079.53;;;0.41
42197;BMP280;27866;48.146;17.098;2023-01-30T02:57:21;100071.13;;;0.37
42197;BMP280;27866;48.146;17.098;2023-01-30T03:01:48;100075.41;;;0.35
42197;BMP280;27866;48.146;17.098;2023-01-30T03:10:51;100047.41;;;0.35
42197;BMP280;27866;48.146;17.098;2023-01-30T03:19:57;100035.25;;;0.46
42197;BMP280;27866;48.146;17.098;2023-01-30T03:24:08;100030.16;;;0.46
42197;BMP280;27866;48.146;17.098;2023-01-30T03:28:20;100030.16;;;0.46
42197;BMP280;27866;48.146;17.098;2023-01-30T03:32:32;100031.03;;;0.45
42197;BMP280;27866;48.146;17.098;2023-01-30T03:36:46;100018.41;;;0.41
42197;BMP280;27866;48.146;17.098;2023-01-30T03:40:57;100008.03;;;0.48
42197;BMP280;27866;48.146;17.098;2023-01-30T03:45:10;100007.13;;;0.50
42197;BMP280;27866;48.146;17.098;2023-01-30T03:49:22;100015.66;;;0.48
42197;BMP280;27866;48.146;17.098;2023-01-30T03:53:33;100008.19;;;0.42
42197;BMP280;27866;48.146;17.098;2023-01-30T03:57:44;100003.22;;;0.36
42197;BMP280;27866;48.146;17.098;2023-01-30T04:01:56;100003.22;;;0.36
42197;BMP280;27866;48.146;17.098;2023-01-30T04:06:08;100003.19;;;0.39
42197;BMP280;27866;48.146;17.098;2023-01-30T04:10:19;99998.13;;;0.38
42197;BMP280;27866;48.146;17.098;2023-01-30T04:14:31;100005.88;;;0.33
42197;BMP280;27866;48.146;17.098;2023-01-30T04:19:00;99986.50;;;0.27
42197;BMP280;27866;48.146;17.098;2023-01-30T04:23:15;99979.72;;;0.27
42197;BMP280;27866;48.146;17.098;2023-01-30T04:27:28;99981.34;;;0.29
42197;BMP280;27866;48.146;17.098;2023-01-30T04:31:55;99976.41;;;0.24
42197;BMP280;27866;48.146;17.098;2023-01-30T04:36:10;99973.97;;;0.19
42197;BMP280;27866;48.146;17.098;2023-01-30T04:40:23;99967.19;;;0.20
42197;BMP280;27866;48.146;17.098;2023-01-30T04:44:34;99974.72;;;0.23
42197;BMP280;27866;48.146;17.098;2023-01-30T04:49:00;99963.84;;;0.18
42197;BMP280;27866;48.146;17.098;2023-01-30T04:53:12;99963.75;;;0.21
42197;BMP280;27866;48.146;17.098;2023-01-30T04:57:23;99945.81;;;0.25
42197;BMP280;27866;48.146;17.098;2023-01-30T05:01:37;99938.03;;;0.31
42197;BMP280;27866;48.146;17.098;2023-01-30T05:05:49;99935.72;;;0.53
42197;BMP280;27866;48.146;17.098;2023-01-30T05:10:00;99943.63;;;0.74
42197;BMP280;27866;48.146;17.098;2023-01-30T05:14:12;99940.56;;;0.91
42197;BMP280;27866;48.146;17.098;2023-01-30T05:18:24;99946.25;;;1.01
42197;BMP280;27866;48.146;17.098;2023-01-30T05:22:35;99929.13;;;1.04
42197;BMP280;27866;48.146;17.098;2023-01-30T05:26:46;99918.34;;;0.96
42197;BMP280;27866;48.146;17.098;2023-01-30T05:31:08;99922.84;;;0.87
42197;BMP280;27866;48.146;17.098;2023-01-30T05:35:20;99917.81;;;0.86
42197;BMP280;27866;48.146;17.098;2023-01-30T05:39:31;99912.41;;;0.96
42197;BMP280;27866;48.146;17.098;2023-01-30T05:43:43;99883.97;;;1.09
42197;BMP280;27866;48.146;17.098;2023-01-30T05:47:54;99900.56;;;1.21
42197;BMP280;27866;48.146;17.098;2023-01-30T05:52:05;99881.66;;;1.28
42197;BMP280;27866;48.146;17.098;2023-01-30T05:56:17;99866.38;;;1.28
42197;BMP280;27866;48.146;17.098;2023-01-30T06:00:29;99884.47;;;1.21
42197;BMP280;27866;48.146;17.098;2023-01-30T06:04:40;99883.50;;;1.23
42197;BMP280;27866;48.146;17.098;2023-01-30T06:08:53;99901.97;;;1.31
42197;BMP280;27866;48.146;17.098;2023-01-30T06:13:04;99900.81;;;1.41
42197;BMP280;27866;48.146;17.098;2023-01-30T06:17:15;99885.13;;;1.52
42197;BMP280;27866;48.146;17.098;2023-01-30T06:21:26;99872.19;;;1.58
42197;BMP280;27866;48.146;17.098;2023-01-30T06:25:38;99868.66;;;1.62
42197;BMP280;27866;48.146;17.098;2023-01-30T06:29:49;99886.28;;;1.69
42197;BMP280;27866;48.146;17.098;2023-01-30T06:34:00;99908.81;;;1.82
42197;BMP280;27866;48.146;17.098;2023-01-30T06:38:11;99902.22;;;2.01
42197;BMP280;27866;48.146;17.098;2023-01-30T06:42:24;99889.81;;;2.14
42197;BMP280;27866;48.146;17.098;2023-01-30T06:46:35;99882.81;;;2.20
42197;BMP280;27866;48.146;17.098;2023-01-30T06:50:46;99850.00;;;2.32
42197;BMP280;27866;48.146;17.098;2023-01-30T06:54:58;99875.97;;;2.45
42197;BMP280;27866;48.146;17.098;2023-01-30T06:59:09;99862.03;;;2.53
42197;BMP280;27866;48.146;17.098;2023-01-30T07:03:20;99869.09;;;2.69
42197;BMP280;27866;48.146;17.098;2023-01-30T07:07:32;99848.94;;;2.84
42197;BMP280;27866;48.146;17.098;2023-01-30T07:11:43;99839.19;;;2.93
42197;BMP280;27866;48.146;17.098;2023-01-30T07:15:54;99831.75;;;3.09
42197;BMP280;27866;48.146;17.098;2023-01-30T07:20:07;99830.53;;;3.17
42197;BMP280;27866;48.146;17.098;2023-01-30T07:24:18;99821.44;;;3.32
42197;BMP280;27866;48.146;17.098;2023-01-30T07:28:30;99831.50;;;3.36
42197;BMP280;27866;48.146;17.098;2023-01-30T07:32:41;99836.25;;;3.45
42197;BMP280;27866;48.146;17.098;2023-01-30T07:36:52;99844.00;;;3.43
42197;BMP280;27866;48.146;17.098;2023-01-30T07:41:04;99846.72;;;3.39
42197;BMP280;27866;48.146;17.098;2023-01-30T07:45:15;99845.03;;;3.39
42197;BMP280;27866;48.146;17.098;2023-01-30T07:49:26;99857.09;;;3.36
42197;BMP280;27866;48.146;17.098;2023-01-30T07:53:37;99843.06;;;3.25
42197;BMP280;27866;48.146;17.098;2023-01-30T07:57:49;99834.72;;;3.20
42197;BMP280;27866;48.146;17.098;2023-01-30T08:02:01;99814.41;;;3.36
42197;BMP280;27866;48.146;17.098;2023-01-30T08:06:12;99817.88;;;3.35
42197;BMP280;27866;48.146;17.098;2023-01-30T08:10:24;99806.16;;;3.51
42197;BMP280;27866;48.146;17.098;2023-01-30T08:14:35;99801.09;;;3.69
42197;BMP280;27866;48.146;17.098;2023-01-30T08:18:46;99792.69;;;3.86
42197;BMP280;27866;48.146;17.098;2023-01-30T08:22:58;99799.19;;;4.12
42197;BMP280;27866;48.146;17.098;2023-01-30T08:27:09;99787.13;;;4.33
42197;BMP280;27866;48.146;17.098;2023-01-30T08:31:21;99780.28;;;4.34
42197;BMP280;27866;48.146;17.098;2023-01-30T08:35:32;99767.25;;;4.38
42197;BMP280;27866;48.146;17.098;2023-01-30T08:39:44;99765.13;;;4.65
42197;BMP280;27866;48.146;17.098;2023-01-30T08:43:55;99762.75;;;4.97
42197;BMP280;27866;48.146;17.098;2023-01-30T08:48:07;99754.84;;;5.01
42197;BMP280;27866;48.146;17.098;2023-01-30T08:52:19;99731.75;;;5.19
42197;BMP280;27866;48.146;17.098;2023-01-30T08:56:30;99728.31;;;5.53
42197;BMP280;27866;48.146;17.098;2023-01-30T09:00:41;99713.84;;;7.51
42197;BMP280;27866;48.146;17.098;2023-01-30T09:04:54;99701.22;;;8.44
42197;BMP280;27866;48.146;17.098;2023-01-30T09:09:06;99682.66;;;9.04
42197;BMP280;27866;48.146;17.098;2023-01-30T09:13:17;99679.19;;;14.28
42197;BMP280;27866;48.146;17.098;2023-01-30T09:17:28;99645.59;;;17.44
42197;BMP280;27866;48.146;17.098;2023-01-30T09:21:39;99659.09;;;12.89
42197;BMP280;27866;48.146;17.098;2023-01-30T09:25:51;99661.41;;;10.37
42197;BMP280;27866;48.146;17.098;2023-01-30T09:30:04;99652.28;;;9.71
42197;BMP280;27866;48.146;17.098;2023-01-30T09:34:16;99659.38;;;9.18
42197;BMP280;27866;48.146;17.098;2023-01-30T09:38:27;99632.56;;;8.81
42197;BMP280;27866;48.146;17.098;2023-01-30T09:47:22;99633.53;;;8.67
42197;BMP280;27866;48.146;17.098;2023-01-30T09:52:32;99601.66;;;9.05
42197;BMP280;27866;48.146;17.098;2023-01-30T09:56:22;99599.81;;;9.07
42197;BMP280;27866;48.146;17.098;2023-01-30T10:00:39;99579.03;;;8.97
42197;BMP280;27866;48.146;17.098;2023-01-30T10:04:54;99578.63;;;8.65
42197;BMP280;27866;48.146;17.098;2023-01-30T10:09:27;99546.31;;;8.46
42197;BMP280;27866;48.146;17.098;2023-01-30T10:14:05;99550.16;;;8.27
42197;BMP280;27866;48.146;17.098;2023-01-30T10:18:55;99529.00;;;8.09
42197;BMP280;27866;48.146;17.098;2023-01-30T10:27:31;99516.56;;;8.15
42197;BMP280;27866;48.146;17.098;2023-01-30T10:31:55;99513.34;;;8.11
42197;BMP280;27866;48.146;17.098;2023-01-30T10:36:22;99497.59;;;8.41
42197;BMP280;27866;48.146;17.098;2023-01-30T10:40:41;99495.06;;;8.28
42197;BMP280;27866;48.146;17.098;2023-01-30T10:45:01;99490.88;;;7.86
42197;BMP280;27866;48.146;17.098;2023-01-30T10:49:44;99513.91;;;7.76
42197;BMP280;27866;48.146;17.098;2023-01-30T10:54:24;99490.00;;;7.74
42197;BMP280;27866;48.146;17.098;2023-01-30T11:03:30;99443.47;;;7.50
42197;BMP280;27866;48.146;17.098;2023-01-30T11:07:46;99400.22;;;7.54
42197;BMP280;27866;48.146;17.098;2023-01-30T11:11:57;99416.84;;;7.63
42197;BMP280;27866;48.146;17.098;2023-01-30T11:16:10;99414.16;;;7.78
42197;BMP280;27866;48.146;17.098;2023-01-30T11:20:23;99390.28;;;7.49
42197;BMP280;27866;48.146;17.098;2023-01-30T11:24:43;99410.06;;;7.48
42197;BMP280;27866;48.146;17.098;2023-01-30T11:28:55;99405.22;;;7.44
42197;BMP280;27866;48.146;17.098;2023-01-30T11:33:16;99415.88;;;7.52
42197;BMP280;27866;48.146;17.098;2023-01-30T11:37:42;99388.19;;;7.81
42197;BMP280;27866;48.146;17.098;2023-01-30T11:46:07;99392.88;;;8.13
42197;BMP280;27866;48.146;17.098;2023-01-30T11:50:19;99377.22;;;8.16
42197;BMP280;27866;48.146;17.098;2023-01-30T11:54:40;99375.91;;;7.84
42197;BMP280;27866;48.146;17.098;2023-01-30T11:59:23;99355.66;;;7.66
42197;BMP280;27866;48.146;17.098;2023-01-30T12:03:31;99369.06;;;7.71
42197;BMP280;27866;48.146;17.098;2023-01-30T12:07:44;99354.28;;;7.61
42197;BMP280;27866;48.146;17.098;2023-01-30T12:11:58;99348.41;;;7.59
42197;BMP280;27866;48.146;17.098;2023-01-30T12:16:49;99330.06;;;7.38
42197;BMP280;27866;48.146;17.098;2023-01-30T12:21:34;99328.97;;;7.28
42197;BMP280;27866;48.146;17.098;2023-01-30T12:26:26;99329.81;;;7.28
42197;BMP280;27866;48.146;17.098;2023-01-30T12:30:46;99324.47;;;7.31
42197;BMP280;27866;48.146;17.098;2023-01-30T12:35:01;99313.78;;;7.37
42197;BMP280;27866;48.146;17.098;2023-01-30T13:03:36;99283.56;;;7.27
42197;BMP280;27866;48.146;17.098;2023-01-30T13:08:08;99297.66;;;7.22
42197;BMP280;27866;48.146;17.098;2023-01-30T13:17:09;99248.50;;;8.50
42197;BMP280;27866;48.146;17.098;2023-01-30T13:21:36;99269.31;;;8.71
42197;BMP280;27866;48.146;17.098;2023-01-30T13:26:23;99270.56;;;8.66
42197;BMP280;27866;48.146;17.098;2023-01-30T13:30:38;99253.84;;;8.71
42197;BMP280;27866;48.146;17.098;2023-01-30T13:34:52;99245.28;;;8.70
42197;BMP280;27866;48.146;17.098;2023-01-30T13:39:33;99214.63;;;8.78
42197;BMP280;27866;48.146;17.098;2023-01-30T13:43:52;99231.22;;;8.86
42197;BMP280;27866;48.146;17.098;2023-01-30T13:48:34;99227.94;;;8.72
42197;BMP280;27866;48.146;17.098;2023-01-30T13:52:58;99237.97;;;8.65
42197;BMP280;27866;48.146;17.098;2023-01-30T14:06:46;99251.91;;;8.74
42197;BMP280;27866;48.146;17.098;2023-01-30T14:10:51;99243.97;;;8.65
42197;BMP280;27866;48.146;17.098;2023-01-30T14:19:38;99252.72;;;8.51
42197;BMP280;27866;48.146;17.098;2023-01-30T14:24:01;99247.16;;;8.32
42197;BMP280;27866;48.146;17.098;2023-01-30T14:32:54;99253.75;;;8.12
42197;BMP280;27866;48.146;17.098;2023-01-30T14:41:39;99264.06;;;8.00
42197;BMP280;27866;48.146;17.098;2023-01-30T14:45:56;99270.19;;;7.85
42197;BMP280;27866;48.146;17.098;2023-01-30T14:50:21;99284.91;;;7.83
42197;BMP280;27866;48.146;17.098;2023-01-30T14:54:33;99282.63;;;7.79
42197;BMP280;27866;48.146;17.098;2023-01-30T14:59:00;99273.34;;;7.77
42197;BMP280;27866;48.146;17.098;2023-01-30T15:03:17;99287.25;;;7.74
42197;BMP280;27866;48.146;17.098;2023-01-30T15:12:18;99291.13;;;7.67
42197;BMP280;27866;48.146;17.098;2023-01-30T15:17:06;99297.91;;;7.56
42197;BMP280;27866;48.146;17.098;2023-01-30T15:31:19;99291.53;;;7.62
42197;BMP280;27866;48.146;17.098;2023-01-30T15:35:31;99304.66;;;7.71
42197;BMP280;27866;48.146;17.098;2023-01-30T15:39:43;99307.88;;;7.74
42197;BMP280;27866;48.146;17.098;2023-01-30T15:49:06;99294.72;;;7.65
42197;BMP280;27866;48.146;17.098;2023-01-30T15:53:33;99289.56;;;7.65
42197;BMP280;27866;48.146;17.098;2023-01-30T15:57:53;99305.97;;;7.64
42197;BMP280;27866;48.146;17.098;2023-01-30T16:02:22;99305.13;;;7.64
42197;BMP280;27866;48.146;17.098;2023-01-30T16:06:36;99305.88;;;7.66
42197;BMP280;27866;48.146;17.098;2023-01-30T16:10:47;99309.19;;;7.67
42197;BMP280;27866;48.146;17.098;2023-01-30T16:15:00;99318.09;;;7.76
42197;BMP280;27866;48.146;17.098;2023-01-30T16:19:24;99319.53;;;7.80
42197;BMP280;27866;48.146;17.098;2023-01-30T16:23:49;99329.53;;;7.84
42197;BMP280;27866;48.146;17.098;2023-01-30T16:28:02;99328.84;;;7.82
42197;BMP280;27866;48.146;17.098;2023-01-30T16:32:14;99320.91;;;7.85
42197;BMP280;27866;48.146;17.098;2023-01-30T16:40:45;99326.88;;;7.85
42197;BMP280;27866;48.146;17.098;2023-01-30T16:49:47;99342.41;;;7.84
42197;BMP280;27866;48.146;17.098;2023-01-30T16:54:02;99332.72;;;7.75
42197;BMP280;27866;48.146;17.098;2023-01-30T16:58:16;99346.00;;;7.56
42197;BMP280;27866;48.146;17.098;2023-01-30T17:02:34;99346.31;;;7.52
42197;BMP280;27866;48.146;17.098;2023-01-30T17:07:01;99355.19;;;7.21
42197;BMP280;27866;48.146;17.098;2023-01-30T17:11:40;99370.28;;;6.99
42197;BMP280;27866;48.146;17.098;2023-01-30T17:15:51;99366.06;;;6.98
42197;BMP280;27866;48.146;17.098;2023-01-30T17:20:04;99383.25;;;7.11
42197;BMP280;27866;48.146;17.098;2023-01-30T17:24:18;99369.91;;;7.19
42197;BMP280;27866;48.146;17.098;2023-01-30T17:28:30;99374.13;;;7.33
42197;BMP280;27866;48.146;17.098;2023-01-30T17:32:41;99385.97;;;7.49
42197;BMP280;27866;48.146;17.098;2023-01-30T17:36:53;99377.84;;;7.68
42197;BMP280;27866;48.146;17.098;2023-01-30T17:41:05;99376.16;;;7.67
42197;BMP280;27866;48.146;17.098;2023-01-30T17:45:19;99382.31;;;7.65
42197;BMP280;27866;48.146;17.098;2023-01-30T17:49:31;99380.72;;;7.51
42197;BMP280;27866;48.146;17.098;2023-01-30T17:53:42;99376.88;;;7.44
42197;BMP280;27866;48.146;17.098;2023-01-30T17:57:53;99371.53;;;7.47
42197;BMP280;27866;48.146;17.098;2023-01-30T18:02:09;99374.09;;;7.47
42197;BMP280;27866;48.146;17.098;2023-01-30T18:06:20;99376.56;;;7.48
42197;BMP280;27866;48.146;17.098;2023-01-30T18:10:31;99388.44;;;7.51
42197;BMP280;27866;48.146;17.098;2023-01-30T18:14:43;99367.97;;;7.36
42197;BMP280;27866;48.146;17.098;2023-01-30T18:18:54;99386.81;;;7.23
42197;BMP280;27866;48.146;17.098;2023-01-30T18:23:05;99376.91;;;7.17
42197;BMP280;27866;48.146;17.098;2023-01-30T18:27:16;99376.53;;;7.09
42197;BMP280;27866;48.146;17.098;2023-01-30T18:31:29;99373.13;;;7.08
42197;BMP280;27866;48.146;17.098;2023-01-30T18:35:40;99382.41;;;7.24
42197;BMP280;27866;48.146;17.098;2023-01-30T18:39:51;99383.88;;;7.42
42197;BMP280;27866;48.146;17.098;2023-01-30T18:44:05;99393.97;;;7.45
42197;BMP280;27866;48.146;17.098;2023-01-30T18:48:16;99374.81;;;7.49
42197;BMP280;27866;48.146;17.098;2023-01-30T18:52:27;99397.84;;;7.52
42197;BMP280;27866;48.146;17.098;2023-01-30T18:56:38;99390.09;;;7.52
42197;BMP280;27866;48.146;17.098;2023-01-30T19:00:50;99387.72;;;7.35
42197;BMP280;27866;48.146;17.098;2023-01-30T19:05:01;99369.75;;;7.22
42197;BMP280;27866;48.146;17.098;2023-01-30T19:09:15;99373.03;;;7.23
42197;BMP280;27866;48.146;17.098;2023-01-30T19:13:27;99384.16;;;7.38
42197;BMP280;27866;48.146;17.098;2023-01-30T19:17:44;99374.81;;;7.49
42197;BMP280;27866;48.146;17.098;2023-01-30T19:21:55;99352.22;;;7.53
42197;BMP280;27866;48.146;17.098;2023-01-30T19:26:06;99362.88;;;7.61
42197;BMP280;27866;48.146;17.098;2023-01-30T19:30:18;99343.88;;;7.62
42197;BMP280;27866;48.146;17.098;2023-01-30T19:34:30;99340.06;;;7.55
42197;BMP280;27866;48.146;17.098;2023-01-30T19:38:42;99358.38;;;7.51
42197;BMP280;27866;48.146;17.098;2023-01-30T19:42:54;99344.84;;;7.61
42197;BMP280;27866;48.146;17.098;2023-01-30T19:47:05;99357.97;;;7.57
42197;BMP280;27866;48.146;17.098;2023-01-30T19:51:28;99375.75;;;7.61
42197;BMP280;27866;48.146;17.098;2023-01-30T19:55:40;99384.84;;;7.67
42197;BMP280;27866;48.146;17.098;2023-01-30T19:59:51;99379.38;;;7.71
42197;BMP280;27866;48.146;17.098;2023-01-30T20:04:03;99386.72;;;7.77
42197;BMP280;27866;48.146;17.098;2023-01-30T20:08:15;99407.91;;;7.68
42197;BMP280;27866;48.146;17.098;2023-01-30T20:12:26;99407.09;;;7.54
42197;BMP280;27866;48.146;17.098;2023-01-30T20:16:38;99410.50;;;7.54
42197;BMP280;27866;48.146;17.098;2023-01-30T20:20:50;99416.38;;;7.70
42197;BMP280;27866;48.146;17.098;2023-01-30T20:25:01;99408.06;;;7.79
42197;BMP280;27866;48.146;17.098;2023-01-30T20:29:12;99406.78;;;7.85
42197;BMP280;27866;48.146;17.098;2023-01-30T20:33:26;99403.38;;;7.85
42197;BMP280;27866;48.146;17.098;2023-01-30T20:37:38;99403.41;;;7.71
42197;BMP280;27866;48.146;17.098;2023-01-30T20:41:50;99420.06;;;7.66
42197;BMP280;27866;48.146;17.098;2023-01-30T20:46:18;99422.06;;;7.75
42197;BMP280;27866;48.146;17.098;2023-01-30T20:50:30;99433.09;;;7.77
42197;BMP280;27866;48.146;17.098;2023-01-30T20:54:47;99423.69;;;7.89
42197;BMP280;27866;48.146;17.098;2023-01-30T20:59:01;99410.06;;;8.01
42197;BMP280;27866;48.146;17.098;2023-01-30T21:03:12;99410.09;;;8.13
42197;BMP280;27866;48.146;17.098;2023-01-30T21:07:24;99416.34;;;8.23
42197;BMP280;27866;48.146;17.098;2023-01-30T21:11:35;99417.91;;;8.25
42197;BMP280;27866;48.146;17.098;2023-01-30T21:15:47;99421.59;;;8.21
42197;BMP280;27866;48.146;17.098;2023-01-30T21:19:58;99430.25;;;8.20
42197;BMP280;27866;48.146;17.098;2023-01-30T21:24:13;99440.00;;;8.29
42197;BMP280;27866;48.146;17.098;2023-01-30T21:28:24;99436.19;;;8.34
42197;BMP280;27866;48.146;17.098;2023-01-30T21:32:36;99445.47;;;8.37
42197;BMP280;27866;48.146;17.098;2023-01-30T21:36:47;99444.53;;;8.38
42197;BMP280;27866;48.146;17.098;2023-01-30T21:41:24;99452.88;;;8.29
42197;BMP280;27866;48.146;17.098;2023-01-30T21:45:56;99457.38;;;8.25
42197;BMP280;27866;48.146;17.098;2023-01-30T21:50:09;99455.16;;;8.33
42197;BMP280;27866;48.146;17.098;2023-01-30T21:54:21;99460.03;;;8.38
42197;BMP280;27866;48.146;17.098;2023-01-30T21:58:32;99442.91;;;8.37
42197;BMP280;27866;48.146;17.098;2023-01-30T22:02:44;99435.25;;;8.35
42197;BMP280;27866;48.146;17.098;2023-01-30T22:06:58;99447.34;;;8.35
42197;BMP280;27866;48.146;17.098;2023-01-30T22:11:12;99440.59;;;8.32
42197;BMP280;27866;48.146;17.098;2023-01-30T22:15:24;99451.53;;;8.24
42197;BMP280;27866;48.146;17.098;2023-01-30T22:19:36;99447.22;;;8.10
42197;BMP280;27866;48.146;17.098;2023-01-30T22:23:49;99453.09;;;8.12
42197;BMP280;27866;48.146;17.098;2023-01-30T22:28:01;99452.22;;;8.00
42197;BMP280;27866;48.146;17.098;2023-01-30T22:32:12;99445.97;;;7.90
42197;BMP280;27866;48.146;17.098;2023-01-30T22:36:26;99425.94;;;7.95
42197;BMP280;27866;48.146;17.098;2023-01-30T22:40:38;99428.66;;;7.92
42197;BMP280;27866;48.146;17.098;2023-01-30T22:44:49;99419.28;;;7.91
42197;BMP280;27866;48.146;17.098;2023-01-30T22:49:02;99414.13;;;7.91
42197;BMP280;27866;48.146;17.098;2023-01-30T22:53:13;99415.72;;;7.80
42197;BMP280;27866;48.146;17.098;2023-01-30T22:57:24;99428.53;;;7.54
42197;BMP280;27866;48.146;17.098;2023-01-30T23:01:42;99402.78;;;7.54
42197;BMP280;27866;48.146;17.098;2023-01-30T23:06:03;99405.00;;;7.60
42197;BMP280;27866;48.146;17.098;2023-01-30T23:10:16;99413.91;;;7.68
42197;BMP280;27866;48.146;17.098;2023-01-30T23:14:28;99419.03;;;7.82
42197;BMP280;27866;48.146;17.098;2023-01-30T23:18:39;99427.47;;;7.97
42197;BMP280;27866;48.146;17.098;2023-01-30T23:23:05;99421.28;;;8.00
42197;BMP280;27866;48.146;17.098;2023-01-30T23:27:17;99439.69;;;8.08
42197;BMP280;27866;48.146;17.098;2023-01-30T23:31:29;99438.09;;;8.19
42197;BMP280;27866;48.146;17.098;2023-01-30T23:35:40;99450.63;;;8.37
42197;BMP280;27866;48.146;17.098;2023-01-30T23:39:51;99455.47;;;8.41
42197;BMP280;27866;48.146;17.098;2023-01-30T23:44:03;99445.16;;;8.41
42197;BMP280;27866;48.146;17.098;2023-01-30T23:48:14;99448.31;;;8.58
42197;BMP280;27866;48.146;17.098;2023-01-30T23:52:25;99448.97;;;8.61
42197;BMP280;27866;48.146;17.098;2023-01-30T23:56:42;99448.97;;;8.61
